Wells, United Kingdom
Current Conditions -  °F | °C
As of 5:50 AM on Thursday 18 Dec 2014 (Local Time) from EGGD Reporting Station
Haze Haze  
Wind Chill: 50°   Ceiling: 200
Heat Index: 50°   Visibility: 1.8mi
Dew Point: 50°   Wind: 23mph
Humidity: 100%   Direction: 250°WSW
Pressure: 29.83"   Gusts: 35mph
Location:  51.21°N, 2.65°W
Report Text: EGGD 180550Z 25020G30KT 3000 BR BKN002 BKN003 10/10 Q1010
Loading
Personal Weather Stations






























Interactive Weather Map New forecast layout! Learn more

10-Day Weather Forecast

Advertisements
Track Severe Weather on mobile